sensor_id;sensor_type;location;lat;lon;timestamp;P1;durP1;ratioP1;P2;durP2;ratioP2
50739;SDS011;36704;52.524;17.580;2023-05-10T00:02:12;11.70;;;5.15;;
50739;SDS011;36704;52.524;17.580;2023-05-10T00:04:58;9.25;;;5.53;;
50739;SDS011;36704;52.524;17.580;2023-05-10T00:07:45;9.45;;;5.82;;
50739;SDS011;36704;52.524;17.580;2023-05-10T00:10:30;11.38;;;5.68;;
50739;SDS011;36704;52.524;17.580;2023-05-10T00:13:16;10.07;;;5.95;;
50739;SDS011;36704;52.524;17.580;2023-05-10T00:16:02;9.63;;;6.00;;
50739;SDS011;36704;52.524;17.580;2023-05-10T00:18:48;11.82;;;6.13;;
50739;SDS011;36704;52.524;17.580;2023-05-10T00:21:34;11.75;;;6.40;;
50739;SDS011;36704;52.524;17.580;2023-05-10T00:24:21;9.82;;;5.53;;
50739;SDS011;36704;52.524;17.580;2023-05-10T00:27:07;9.45;;;5.22;;
50739;SDS011;36704;52.524;17.580;2023-05-10T00:29:53;8.02;;;5.40;;
50739;SDS011;36704;52.524;17.580;2023-05-10T00:32:39;11.15;;;5.65;;
50739;SDS011;36704;52.524;17.580;2023-05-10T00:35:25;11.75;;;5.10;;
50739;SDS011;36704;52.524;17.580;2023-05-10T00:38:11;10.27;;;5.40;;
50739;SDS011;36704;52.524;17.580;2023-05-10T00:40:57;10.55;;;5.40;;
50739;SDS011;36704;52.524;17.580;2023-05-10T00:43:47;8.00;;;5.63;;
50739;SDS011;36704;52.524;17.580;2023-05-10T00:46:34;11.63;;;5.78;;
50739;SDS011;36704;52.524;17.580;2023-05-10T00:49:20;9.05;;;5.32;;
50739;SDS011;36704;52.524;17.580;2023-05-10T00:52:08;11.32;;;5.18;;
50739;SDS011;36704;52.524;17.580;2023-05-10T00:54:55;13.15;;;5.85;;
50739;SDS011;36704;52.524;17.580;2023-05-10T00:57:41;10.02;;;5.30;;
50739;SDS011;36704;52.524;17.580;2023-05-10T01:00:28;10.77;;;6.32;;
50739;SDS011;36704;52.524;17.580;2023-05-10T01:03:15;8.43;;;5.22;;
50739;SDS011;36704;52.524;17.580;2023-05-10T01:06:03;10.10;;;5.68;;
50739;SDS011;36704;52.524;17.580;2023-05-10T01:08:49;8.80;;;5.22;;
50739;SDS011;36704;52.524;17.580;2023-05-10T01:11:36;10.20;;;6.07;;
50739;SDS011;36704;52.524;17.580;2023-05-10T01:14:24;10.23;;;5.57;;
50739;SDS011;36704;52.524;17.580;2023-05-10T01:17:10;10.38;;;5.22;;
50739;SDS011;36704;52.524;17.580;2023-05-10T01:19:57;8.60;;;5.15;;
50739;SDS011;36704;52.524;17.580;2023-05-10T01:23:04;8.95;;;5.38;;
50739;SDS011;36704;52.524;17.580;2023-05-10T01:32:24;9.13;;;5.22;;
50739;SDS011;36704;52.524;17.580;2023-05-10T01:35:23;8.00;;;4.90;;
50739;SDS011;36704;52.524;17.580;2023-05-10T01:41:42;7.55;;;5.47;;
50739;SDS011;36704;52.524;17.580;2023-05-10T01:44:35;10.30;;;5.30;;
50739;SDS011;36704;52.524;17.580;2023-05-10T01:50:24;9.38;;;5.25;;
50739;SDS011;36704;52.524;17.580;2023-05-10T01:53:14;9.27;;;5.65;;
50739;SDS011;36704;52.524;17.580;2023-05-10T01:56:04;9.88;;;5.07;;
50739;SDS011;36704;52.524;17.580;2023-05-10T01:58:50;10.75;;;5.60;;
50739;SDS011;36704;52.524;17.580;2023-05-10T02:01:38;7.40;;;5.22;;
50739;SDS011;36704;52.524;17.580;2023-05-10T02:04:25;9.38;;;5.25;;
50739;SDS011;36704;52.524;17.580;2023-05-10T02:07:13;12.38;;;5.88;;
50739;SDS011;36704;52.524;17.580;2023-05-10T02:09:59;8.60;;;5.65;;
50739;SDS011;36704;52.524;17.580;2023-05-10T02:12:47;12.00;;;5.15;;
50739;SDS011;36704;52.524;17.580;2023-05-10T02:15:34;7.90;;;4.97;;
50739;SDS011;36704;52.524;17.580;2023-05-10T02:18:21;8.90;;;5.28;;
50739;SDS011;36704;52.524;17.580;2023-05-10T02:21:08;9.27;;;5.35;;
50739;SDS011;36704;52.524;17.580;2023-05-10T02:23:57;7.80;;;5.47;;
50739;SDS011;36704;52.524;17.580;2023-05-10T02:26:46;8.13;;;5.40;;
50739;SDS011;36704;52.524;17.580;2023-05-10T02:29:33;11.63;;;6.03;;
50739;SDS011;36704;52.524;17.580;2023-05-10T02:32:20;8.15;;;5.00;;
50739;SDS011;36704;52.524;17.580;2023-05-10T02:35:08;12.68;;;5.07;;
50739;SDS011;36704;52.524;17.580;2023-05-10T02:37:56;10.60;;;5.28;;
50739;SDS011;36704;52.524;17.580;2023-05-10T02:40:44;10.85;;;5.93;;
50739;SDS011;36704;52.524;17.580;2023-05-10T02:43:30;9.43;;;5.82;;
50739;SDS011;36704;52.524;17.580;2023-05-10T02:46:18;10.52;;;6.00;;
50739;SDS011;36704;52.524;17.580;2023-05-10T02:49:04;9.15;;;5.20;;
50739;SDS011;36704;52.524;17.580;2023-05-10T02:51:52;8.43;;;5.40;;
50739;SDS011;36704;52.524;17.580;2023-05-10T02:54:45;9.05;;;5.72;;
50739;SDS011;36704;52.524;17.580;2023-05-10T02:57:36;10.15;;;5.90;;
50739;SDS011;36704;52.524;17.580;2023-05-10T03:00:26;8.20;;;5.60;;
50739;SDS011;36704;52.524;17.580;2023-05-10T03:03:12;10.55;;;5.85;;
50739;SDS011;36704;52.524;17.580;2023-05-10T03:05:59;10.43;;;5.93;;
50739;SDS011;36704;52.524;17.580;2023-05-10T03:08:45;15.00;;;6.18;;
50739;SDS011;36704;52.524;17.580;2023-05-10T03:11:36;11.18;;;6.47;;
50739;SDS011;36704;52.524;17.580;2023-05-10T03:17:55;8.10;;;5.32;;
50739;SDS011;36704;52.524;17.580;2023-05-10T03:20:47;12.65;;;5.82;;
50739;SDS011;36704;52.524;17.580;2023-05-10T03:23:35;10.40;;;6.18;;
50739;SDS011;36704;52.524;17.580;2023-05-10T03:26:27;9.57;;;6.82;;
50739;SDS011;36704;52.524;17.580;2023-05-10T03:29:34;10.85;;;5.97;;
50739;SDS011;36704;52.524;17.580;2023-05-10T03:32:21;10.63;;;5.90;;
50739;SDS011;36704;52.524;17.580;2023-05-10T03:35:11;9.82;;;5.88;;
50739;SDS011;36704;52.524;17.580;2023-05-10T03:37:59;12.20;;;6.20;;
50739;SDS011;36704;52.524;17.580;2023-05-10T03:40:45;10.30;;;5.53;;
50739;SDS011;36704;52.524;17.580;2023-05-10T03:43:32;10.32;;;6.00;;
50739;SDS011;36704;52.524;17.580;2023-05-10T03:46:18;12.85;;;6.70;;
50739;SDS011;36704;52.524;17.580;2023-05-10T03:49:08;10.30;;;6.30;;
50739;SDS011;36704;52.524;17.580;2023-05-10T03:51:54;8.65;;;5.88;;
50739;SDS011;36704;52.524;17.580;2023-05-10T03:54:41;9.75;;;6.25;;
50739;SDS011;36704;52.524;17.580;2023-05-10T03:57:27;9.25;;;5.97;;
50739;SDS011;36704;52.524;17.580;2023-05-10T04:00:14;11.50;;;6.00;;
50739;SDS011;36704;52.524;17.580;2023-05-10T04:03:01;8.25;;;5.60;;
50739;SDS011;36704;52.524;17.580;2023-05-10T04:05:47;7.93;;;5.57;;
50739;SDS011;36704;52.524;17.580;2023-05-10T04:08:33;9.48;;;6.20;;
50739;SDS011;36704;52.524;17.580;2023-05-10T04:11:20;12.88;;;6.15;;
50739;SDS011;36704;52.524;17.580;2023-05-10T04:14:07;9.57;;;5.88;;
50739;SDS011;36704;52.524;17.580;2023-05-10T04:16:54;10.25;;;6.13;;
50739;SDS011;36704;52.524;17.580;2023-05-10T04:19:40;12.05;;;5.53;;
50739;SDS011;36704;52.524;17.580;2023-05-10T04:22:27;9.60;;;5.53;;
50739;SDS011;36704;52.524;17.580;2023-05-10T04:25:14;10.65;;;5.70;;
50739;SDS011;36704;52.524;17.580;2023-05-10T04:28:01;8.98;;;5.35;;
50739;SDS011;36704;52.524;17.580;2023-05-10T04:30:47;11.48;;;5.78;;
50739;SDS011;36704;52.524;17.580;2023-05-10T04:33:34;9.07;;;5.18;;
50739;SDS011;36704;52.524;17.580;2023-05-10T04:36:20;9.13;;;4.78;;
50739;SDS011;36704;52.524;17.580;2023-05-10T04:39:07;10.35;;;5.60;;
50739;SDS011;36704;52.524;17.580;2023-05-10T04:41:54;11.40;;;4.70;;
50739;SDS011;36704;52.524;17.580;2023-05-10T04:44:41;9.63;;;4.93;;
50739;SDS011;36704;52.524;17.580;2023-05-10T04:47:27;10.23;;;5.55;;
50739;SDS011;36704;52.524;17.580;2023-05-10T04:50:13;10.10;;;5.07;;
50739;SDS011;36704;52.524;17.580;2023-05-10T04:53:00;8.85;;;5.85;;
50739;SDS011;36704;52.524;17.580;2023-05-10T04:55:47;9.25;;;5.22;;
50739;SDS011;36704;52.524;17.580;2023-05-10T04:58:33;8.18;;;5.30;;
50739;SDS011;36704;52.524;17.580;2023-05-10T05:01:20;6.82;;;5.25;;
50739;SDS011;36704;52.524;17.580;2023-05-10T05:04:06;7.40;;;4.90;;
50739;SDS011;36704;52.524;17.580;2023-05-10T05:06:52;42.80;;;20.98;;
50739;SDS011;36704;52.524;17.580;2023-05-10T05:09:38;9.60;;;5.45;;
50739;SDS011;36704;52.524;17.580;2023-05-10T05:12:25;8.00;;;4.78;;
50739;SDS011;36704;52.524;17.580;2023-05-10T05:15:11;9.07;;;4.60;;
50739;SDS011;36704;52.524;17.580;2023-05-10T05:17:58;12.02;;;4.63;;
50739;SDS011;36704;52.524;17.580;2023-05-10T05:20:44;10.85;;;4.72;;
50739;SDS011;36704;52.524;17.580;2023-05-10T05:23:31;11.48;;;4.93;;
50739;SDS011;36704;52.524;17.580;2023-05-10T05:26:17;7.38;;;4.78;;
50739;SDS011;36704;52.524;17.580;2023-05-10T05:29:04;8.27;;;4.85;;
50739;SDS011;36704;52.524;17.580;2023-05-10T05:31:50;9.07;;;4.65;;
50739;SDS011;36704;52.524;17.580;2023-05-10T05:34:40;7.60;;;4.53;;
50739;SDS011;36704;52.524;17.580;2023-05-10T05:37:26;7.80;;;4.47;;
50739;SDS011;36704;52.524;17.580;2023-05-10T05:40:13;8.30;;;4.63;;
50739;SDS011;36704;52.524;17.580;2023-05-10T05:42:59;8.77;;;4.93;;
50739;SDS011;36704;52.524;17.580;2023-05-10T05:45:46;8.75;;;4.70;;
50739;SDS011;36704;52.524;17.580;2023-05-10T05:48:32;7.75;;;4.63;;
50739;SDS011;36704;52.524;17.580;2023-05-10T05:51:18;7.63;;;3.78;;
50739;SDS011;36704;52.524;17.580;2023-05-10T05:54:05;8.40;;;4.57;;
50739;SDS011;36704;52.524;17.580;2023-05-10T05:56:55;8.57;;;4.10;;
50739;SDS011;36704;52.524;17.580;2023-05-10T05:59:44;11.35;;;4.50;;
50739;SDS011;36704;52.524;17.580;2023-05-10T06:02:31;10.43;;;4.28;;
50739;SDS011;36704;52.524;17.580;2023-05-10T06:05:17;10.00;;;4.30;;
50739;SDS011;36704;52.524;17.580;2023-05-10T06:08:04;7.35;;;4.05;;
50739;SDS011;36704;52.524;17.580;2023-05-10T06:10:50;7.78;;;4.07;;
50739;SDS011;36704;52.524;17.580;2023-05-10T06:13:36;8.77;;;4.45;;
50739;SDS011;36704;52.524;17.580;2023-05-10T06:16:22;8.30;;;4.43;;
50739;SDS011;36704;52.524;17.580;2023-05-10T06:19:09;5.95;;;4.13;;
50739;SDS011;36704;52.524;17.580;2023-05-10T06:21:54;7.43;;;4.30;;
50739;SDS011;36704;52.524;17.580;2023-05-10T06:24:41;9.48;;;4.43;;
50739;SDS011;36704;52.524;17.580;2023-05-10T06:27:27;8.98;;;4.03;;
50739;SDS011;36704;52.524;17.580;2023-05-10T06:30:14;10.27;;;4.43;;
50739;SDS011;36704;52.524;17.580;2023-05-10T06:33:00;10.20;;;4.88;;
50739;SDS011;36704;52.524;17.580;2023-05-10T06:35:47;9.77;;;4.32;;
50739;SDS011;36704;52.524;17.580;2023-05-10T06:38:34;7.65;;;3.75;;
50739;SDS011;36704;52.524;17.580;2023-05-10T06:41:20;5.63;;;3.88;;
50739;SDS011;36704;52.524;17.580;2023-05-10T06:44:09;8.57;;;4.10;;
50739;SDS011;36704;52.524;17.580;2023-05-10T06:46:55;8.75;;;4.93;;
50739;SDS011;36704;52.524;17.580;2023-05-10T06:49:42;6.40;;;3.90;;
50739;SDS011;36704;52.524;17.580;2023-05-10T06:52:28;6.03;;;3.75;;
50739;SDS011;36704;52.524;17.580;2023-05-10T06:55:14;9.60;;;4.13;;
50739;SDS011;36704;52.524;17.580;2023-05-10T06:58:01;6.03;;;4.10;;
50739;SDS011;36704;52.524;17.580;2023-05-10T07:00:47;6.55;;;3.88;;
50739;SDS011;36704;52.524;17.580;2023-05-10T07:03:34;6.68;;;3.47;;
50739;SDS011;36704;52.524;17.580;2023-05-10T07:06:19;5.88;;;3.53;;
50739;SDS011;36704;52.524;17.580;2023-05-10T07:09:17;6.63;;;3.67;;
50739;SDS011;36704;52.524;17.580;2023-05-10T07:12:03;5.38;;;3.25;;
50739;SDS011;36704;52.524;17.580;2023-05-10T07:14:50;7.72;;;3.67;;
50739;SDS011;36704;52.524;17.580;2023-05-10T07:17:36;7.18;;;3.70;;
50739;SDS011;36704;52.524;17.580;2023-05-10T07:20:22;8.63;;;3.65;;
50739;SDS011;36704;52.524;17.580;2023-05-10T07:23:08;8.00;;;3.50;;
50739;SDS011;36704;52.524;17.580;2023-05-10T07:25:54;6.40;;;3.70;;
50739;SDS011;36704;52.524;17.580;2023-05-10T07:28:42;5.75;;;3.38;;
50739;SDS011;36704;52.524;17.580;2023-05-10T07:31:29;4.38;;;3.30;;
50739;SDS011;36704;52.524;17.580;2023-05-10T07:34:15;6.43;;;3.72;;
50739;SDS011;36704;52.524;17.580;2023-05-10T07:37:01;6.55;;;3.65;;
50739;SDS011;36704;52.524;17.580;2023-05-10T07:39:47;6.18;;;3.55;;
50739;SDS011;36704;52.524;17.580;2023-05-10T07:42:33;7.00;;;3.53;;
50739;SDS011;36704;52.524;17.580;2023-05-10T07:45:19;7.97;;;4.00;;
50739;SDS011;36704;52.524;17.580;2023-05-10T07:48:07;4.82;;;3.00;;
50739;SDS011;36704;52.524;17.580;2023-05-10T07:50:53;5.40;;;3.30;;
50739;SDS011;36704;52.524;17.580;2023-05-10T07:53:39;5.80;;;3.30;;
50739;SDS011;36704;52.524;17.580;2023-05-10T07:56:27;7.75;;;3.08;;
50739;SDS011;36704;52.524;17.580;2023-05-10T07:59:18;4.93;;;3.42;;
50739;SDS011;36704;52.524;17.580;2023-05-10T08:02:04;7.75;;;3.75;;
50739;SDS011;36704;52.524;17.580;2023-05-10T08:04:51;6.50;;;3.40;;
50739;SDS011;36704;52.524;17.580;2023-05-10T08:07:37;5.68;;;3.00;;
50739;SDS011;36704;52.524;17.580;2023-05-10T08:10:24;5.13;;;3.55;;
50739;SDS011;36704;52.524;17.580;2023-05-10T08:13:10;9.73;;;3.30;;
50739;SDS011;36704;52.524;17.580;2023-05-10T08:15:57;7.07;;;3.22;;
50739;SDS011;36704;52.524;17.580;2023-05-10T08:18:44;5.28;;;2.75;;
50739;SDS011;36704;52.524;17.580;2023-05-10T08:21:34;6.40;;;3.70;;
50739;SDS011;36704;52.524;17.580;2023-05-10T08:24:19;3.72;;;3.20;;
50739;SDS011;36704;52.524;17.580;2023-05-10T08:27:06;5.75;;;2.85;;
50739;SDS011;36704;52.524;17.580;2023-05-10T08:29:51;5.80;;;2.60;;
50739;SDS011;36704;52.524;17.580;2023-05-10T08:32:38;3.90;;;2.60;;
50739;SDS011;36704;52.524;17.580;2023-05-10T08:35:24;5.80;;;3.00;;
50739;SDS011;36704;52.524;17.580;2023-05-10T08:38:11;4.68;;;2.95;;
50739;SDS011;36704;52.524;17.580;2023-05-10T08:40:58;4.95;;;2.90;;
50739;SDS011;36704;52.524;17.580;2023-05-10T08:43:45;4.85;;;2.60;;
50739;SDS011;36704;52.524;17.580;2023-05-10T08:46:33;5.50;;;2.85;;
50739;SDS011;36704;52.524;17.580;2023-05-10T08:52:08;4.15;;;2.30;;
50739;SDS011;36704;52.524;17.580;2023-05-10T08:54:56;5.53;;;2.58;;
50739;SDS011;36704;52.524;17.580;2023-05-10T08:57:42;6.00;;;3.08;;
50739;SDS011;36704;52.524;17.580;2023-05-10T09:00:29;4.30;;;2.42;;
50739;SDS011;36704;52.524;17.580;2023-05-10T09:03:15;4.43;;;2.70;;
50739;SDS011;36704;52.524;17.580;2023-05-10T09:06:01;4.10;;;2.53;;
50739;SDS011;36704;52.524;17.580;2023-05-10T09:08:47;5.20;;;2.70;;
50739;SDS011;36704;52.524;17.580;2023-05-10T09:11:34;8.52;;;2.60;;
50739;SDS011;36704;52.524;17.580;2023-05-10T09:14:20;8.82;;;2.90;;
50739;SDS011;36704;52.524;17.580;2023-05-10T09:17:09;4.25;;;2.70;;
50739;SDS011;36704;52.524;17.580;2023-05-10T09:20:02;6.38;;;2.28;;
50739;SDS011;36704;52.524;17.580;2023-05-10T09:22:49;5.20;;;2.17;;
50739;SDS011;36704;52.524;17.580;2023-05-10T09:25:36;6.50;;;2.55;;
50739;SDS011;36704;52.524;17.580;2023-05-10T09:28:24;7.45;;;3.03;;
50739;SDS011;36704;52.524;17.580;2023-05-10T09:31:10;5.03;;;2.92;;
50739;SDS011;36704;52.524;17.580;2023-05-10T09:33:56;6.40;;;2.80;;
50739;SDS011;36704;52.524;17.580;2023-05-10T09:39:58;4.32;;;2.50;;
50739;SDS011;36704;52.524;17.580;2023-05-10T09:43:03;5.03;;;2.47;;
50739;SDS011;36704;52.524;17.580;2023-05-10T09:45:52;7.65;;;2.70;;
50739;SDS011;36704;52.524;17.580;2023-05-10T09:48:40;3.65;;;2.17;;
50739;SDS011;36704;52.524;17.580;2023-05-10T09:51:28;3.23;;;2.30;;
50739;SDS011;36704;52.524;17.580;2023-05-10T09:54:15;3.92;;;2.22;;
50739;SDS011;36704;52.524;17.580;2023-05-10T09:57:02;4.50;;;2.10;;
50739;SDS011;36704;52.524;17.580;2023-05-10T09:59:48;2.60;;;2.05;;
50739;SDS011;36704;52.524;17.580;2023-05-10T10:02:36;9.18;;;2.30;;
50739;SDS011;36704;52.524;17.580;2023-05-10T10:05:29;4.22;;;2.03;;
50739;SDS011;36704;52.524;17.580;2023-05-10T10:08:16;6.40;;;2.33;;
50739;SDS011;36704;52.524;17.580;2023-05-10T10:11:03;2.80;;;1.98;;
50739;SDS011;36704;52.524;17.580;2023-05-10T10:13:49;4.47;;;2.38;;
50739;SDS011;36704;52.524;17.580;2023-05-10T10:16:35;6.95;;;2.70;;
50739;SDS011;36704;52.524;17.580;2023-05-10T10:19:31;3.85;;;2.80;;
50739;SDS011;36704;52.524;17.580;2023-05-10T10:22:18;4.07;;;2.47;;
50739;SDS011;36704;52.524;17.580;2023-05-10T10:25:05;7.47;;;2.80;;
50739;SDS011;36704;52.524;17.580;2023-05-10T10:28:01;3.38;;;2.40;;
50739;SDS011;36704;52.524;17.580;2023-05-10T10:30:55;5.97;;;2.47;;
50739;SDS011;36704;52.524;17.580;2023-05-10T10:33:54;6.05;;;2.50;;
50739;SDS011;36704;52.524;17.580;2023-05-10T10:36:42;3.15;;;2.47;;
50739;SDS011;36704;52.524;17.580;2023-05-10T10:39:29;5.68;;;2.40;;
50739;SDS011;36704;52.524;17.580;2023-05-10T10:42:43;4.38;;;2.50;;
50739;SDS011;36704;52.524;17.580;2023-05-10T10:45:38;9.73;;;3.17;;
50739;SDS011;36704;52.524;17.580;2023-05-10T10:48:27;5.60;;;2.42;;
50739;SDS011;36704;52.524;17.580;2023-05-10T10:51:13;5.28;;;2.97;;
50739;SDS011;36704;52.524;17.580;2023-05-10T10:54:08;4.13;;;2.83;;
50739;SDS011;36704;52.524;17.580;2023-05-10T10:57:14;4.72;;;2.60;;
50739;SDS011;36704;52.524;17.580;2023-05-10T11:00:20;4.72;;;2.67;;
50739;SDS011;36704;52.524;17.580;2023-05-10T11:03:13;5.78;;;2.80;;
50739;SDS011;36704;52.524;17.580;2023-05-10T11:06:02;7.45;;;2.90;;
50739;SDS011;36704;52.524;17.580;2023-05-10T11:08:49;6.00;;;2.45;;
50739;SDS011;36704;52.524;17.580;2023-05-10T11:11:36;5.38;;;2.88;;
50739;SDS011;36704;52.524;17.580;2023-05-10T11:14:35;5.65;;;2.83;;
50739;SDS011;36704;52.524;17.580;2023-05-10T11:17:24;7.70;;;2.40;;
50739;SDS011;36704;52.524;17.580;2023-05-10T11:20:14;5.47;;;3.08;;
50739;SDS011;36704;52.524;17.580;2023-05-10T11:23:13;10.57;;;5.35;;
50739;SDS011;36704;52.524;17.580;2023-05-10T11:26:07;5.68;;;3.10;;
50739;SDS011;36704;52.524;17.580;2023-05-10T11:28:57;4.65;;;3.60;;
50739;SDS011;36704;52.524;17.580;2023-05-10T11:31:48;7.90;;;2.63;;
50739;SDS011;36704;52.524;17.580;2023-05-10T11:34:34;8.38;;;4.10;;
50739;SDS011;36704;52.524;17.580;2023-05-10T11:37:21;6.35;;;3.45;;
50739;SDS011;36704;52.524;17.580;2023-05-10T11:40:08;8.00;;;4.35;;
50739;SDS011;36704;52.524;17.580;2023-05-10T11:42:55;4.25;;;2.88;;
50739;SDS011;36704;52.524;17.580;2023-05-10T11:45:41;6.35;;;3.10;;
50739;SDS011;36704;52.524;17.580;2023-05-10T11:48:29;6.00;;;2.40;;
50739;SDS011;36704;52.524;17.580;2023-05-10T11:51:15;4.75;;;3.08;;
50739;SDS011;36704;52.524;17.580;2023-05-10T11:54:09;5.57;;;2.97;;
50739;SDS011;36704;52.524;17.580;2023-05-10T11:59:42;4.10;;;2.83;;
50739;SDS011;36704;52.524;17.580;2023-05-10T12:02:28;4.15;;;3.22;;
50739;SDS011;36704;52.524;17.580;2023-05-10T12:05:15;5.85;;;3.72;;
50739;SDS011;36704;52.524;17.580;2023-05-10T12:08:11;5.68;;;3.30;;
50739;SDS011;36704;52.524;17.580;2023-05-10T12:11:08;4.88;;;3.15;;
50739;SDS011;36704;52.524;17.580;2023-05-10T12:13:57;8.07;;;2.83;;
50739;SDS011;36704;52.524;17.580;2023-05-10T12:16:44;7.82;;;2.88;;
50739;SDS011;36704;52.524;17.580;2023-05-10T12:19:36;5.47;;;2.92;;
50739;SDS011;36704;52.524;17.580;2023-05-10T12:22:26;6.72;;;3.35;;
50739;SDS011;36704;52.524;17.580;2023-05-10T12:25:12;7.63;;;3.13;;
50739;SDS011;36704;52.524;17.580;2023-05-10T12:27:59;5.65;;;2.72;;
50739;SDS011;36704;52.524;17.580;2023-05-10T12:30:48;5.47;;;2.63;;
50739;SDS011;36704;52.524;17.580;2023-05-10T12:33:38;7.03;;;3.80;;
50739;SDS011;36704;52.524;17.580;2023-05-10T12:36:29;5.97;;;3.22;;
50739;SDS011;36704;52.524;17.580;2023-05-10T12:39:15;6.93;;;2.50;;
50739;SDS011;36704;52.524;17.580;2023-05-10T12:42:02;7.30;;;3.67;;
50739;SDS011;36704;52.524;17.580;2023-05-10T12:44:48;8.63;;;2.95;;
50739;SDS011;36704;52.524;17.580;2023-05-10T12:47:34;6.35;;;3.20;;
50739;SDS011;36704;52.524;17.580;2023-05-10T12:50:21;3.70;;;2.45;;
50739;SDS011;36704;52.524;17.580;2023-05-10T12:53:07;4.68;;;2.78;;
50739;SDS011;36704;52.524;17.580;2023-05-10T12:55:53;4.88;;;2.90;;
50739;SDS011;36704;52.524;17.580;2023-05-10T12:58:39;5.85;;;3.35;;
50739;SDS011;36704;52.524;17.580;2023-05-10T13:01:25;7.70;;;3.00;;
50739;SDS011;36704;52.524;17.580;2023-05-10T13:04:11;4.65;;;2.75;;
50739;SDS011;36704;52.524;17.580;2023-05-10T13:06:57;6.78;;;3.20;;
50739;SDS011;36704;52.524;17.580;2023-05-10T13:09:44;5.60;;;2.80;;
50739;SDS011;36704;52.524;17.580;2023-05-10T13:12:30;5.95;;;3.10;;
50739;SDS011;36704;52.524;17.580;2023-05-10T13:15:16;9.65;;;2.90;;
50739;SDS011;36704;52.524;17.580;2023-05-10T13:18:02;8.77;;;3.08;;
50739;SDS011;36704;52.524;17.580;2023-05-10T13:20:48;3.80;;;2.55;;
50739;SDS011;36704;52.524;17.580;2023-05-10T13:23:35;4.47;;;3.00;;
50739;SDS011;36704;52.524;17.580;2023-05-10T13:26:21;5.97;;;2.58;;
50739;SDS011;36704;52.524;17.580;2023-05-10T13:29:07;4.93;;;2.90;;
50739;SDS011;36704;52.524;17.580;2023-05-10T13:31:53;6.75;;;3.20;;
50739;SDS011;36704;52.524;17.580;2023-05-10T13:34:40;7.15;;;2.65;;
50739;SDS011;36704;52.524;17.580;2023-05-10T13:37:26;11.60;;;5.07;;
50739;SDS011;36704;52.524;17.580;2023-05-10T13:40:12;9.23;;;2.97;;
50739;SDS011;36704;52.524;17.580;2023-05-10T13:43:01;7.10;;;2.83;;
50739;SDS011;36704;52.524;17.580;2023-05-10T13:45:47;4.18;;;2.70;;
50739;SDS011;36704;52.524;17.580;2023-05-10T13:48:34;3.72;;;2.30;;
50739;SDS011;36704;52.524;17.580;2023-05-10T13:51:23;3.97;;;2.30;;
50739;SDS011;36704;52.524;17.580;2023-05-10T13:54:09;6.22;;;2.53;;
50739;SDS011;36704;52.524;17.580;2023-05-10T13:56:58;4.20;;;2.70;;
50739;SDS011;36704;52.524;17.580;2023-05-10T13:59:45;6.70;;;2.58;;
50739;SDS011;36704;52.524;17.580;2023-05-10T14:02:31;3.65;;;2.63;;
50739;SDS011;36704;52.524;17.580;2023-05-10T14:05:17;7.03;;;2.47;;
50739;SDS011;36704;52.524;17.580;2023-05-10T14:08:10;7.43;;;2.63;;
50739;SDS011;36704;52.524;17.580;2023-05-10T14:10:58;4.80;;;2.45;;
50739;SDS011;36704;52.524;17.580;2023-05-10T14:13:44;7.53;;;2.35;;
50739;SDS011;36704;52.524;17.580;2023-05-10T14:16:30;4.00;;;2.30;;
50739;SDS011;36704;52.524;17.580;2023-05-10T14:19:17;7.57;;;2.75;;
50739;SDS011;36704;52.524;17.580;2023-05-10T14:22:03;3.72;;;2.17;;
50739;SDS011;36704;52.524;17.580;2023-05-10T14:24:50;3.72;;;2.45;;
50739;SDS011;36704;52.524;17.580;2023-05-10T14:27:36;3.72;;;2.30;;
50739;SDS011;36704;52.524;17.580;2023-05-10T14:30:22;4.82;;;2.47;;
50739;SDS011;36704;52.524;17.580;2023-05-10T14:33:09;6.68;;;2.58;;
50739;SDS011;36704;52.524;17.580;2023-05-10T14:35:55;4.53;;;2.58;;
50739;SDS011;36704;52.524;17.580;2023-05-10T14:38:43;4.00;;;2.50;;
50739;SDS011;36704;52.524;17.580;2023-05-10T14:41:29;6.05;;;2.33;;
50739;SDS011;36704;52.524;17.580;2023-05-10T14:44:15;5.60;;;2.20;;
50739;SDS011;36704;52.524;17.580;2023-05-10T14:47:02;2.50;;;2.10;;
50739;SDS011;36704;52.524;17.580;2023-05-10T14:49:48;5.72;;;2.25;;
50739;SDS011;36704;52.524;17.580;2023-05-10T14:52:34;3.15;;;2.22;;
50739;SDS011;36704;52.524;17.580;2023-05-10T14:55:20;4.78;;;2.40;;
50739;SDS011;36704;52.524;17.580;2023-05-10T14:58:05;7.20;;;2.40;;
50739;SDS011;36704;52.524;17.580;2023-05-10T15:00:52;3.75;;;2.17;;
50739;SDS011;36704;52.524;17.580;2023-05-10T15:03:39;3.20;;;2.33;;
50739;SDS011;36704;52.524;17.580;2023-05-10T15:06:30;3.60;;;2.33;;
50739;SDS011;36704;52.524;17.580;2023-05-10T15:09:17;4.90;;;2.53;;
50739;SDS011;36704;52.524;17.580;2023-05-10T15:12:03;4.55;;;2.42;;
50739;SDS011;36704;52.524;17.580;2023-05-10T15:14:49;5.90;;;2.38;;
50739;SDS011;36704;52.524;17.580;2023-05-10T15:17:35;5.35;;;2.40;;
50739;SDS011;36704;52.524;17.580;2023-05-10T15:20:21;3.70;;;2.72;;
50739;SDS011;36704;52.524;17.580;2023-05-10T15:23:08;7.82;;;2.40;;
50739;SDS011;36704;52.524;17.580;2023-05-10T15:25:54;4.55;;;2.90;;
50739;SDS011;36704;52.524;17.580;2023-05-10T15:28:41;4.80;;;2.42;;
50739;SDS011;36704;52.524;17.580;2023-05-10T15:31:27;2.72;;;2.35;;
50739;SDS011;36704;52.524;17.580;2023-05-10T15:34:13;4.10;;;2.50;;
50739;SDS011;36704;52.524;17.580;2023-05-10T15:36:59;5.35;;;2.38;;
50739;SDS011;36704;52.524;17.580;2023-05-10T15:39:46;6.25;;;2.55;;
50739;SDS011;36704;52.524;17.580;2023-05-10T15:42:32;6.35;;;2.35;;
50739;SDS011;36704;52.524;17.580;2023-05-10T15:45:19;5.45;;;2.55;;
50739;SDS011;36704;52.524;17.580;2023-05-10T15:48:05;3.45;;;2.53;;
50739;SDS011;36704;52.524;17.580;2023-05-10T15:50:51;6.30;;;2.95;;
50739;SDS011;36704;52.524;17.580;2023-05-10T15:53:38;5.93;;;2.92;;
50739;SDS011;36704;52.524;17.580;2023-05-10T15:56:37;5.97;;;3.47;;
50739;SDS011;36704;52.524;17.580;2023-05-10T15:59:24;6.65;;;2.65;;
50739;SDS011;36704;52.524;17.580;2023-05-10T16:02:10;4.57;;;2.83;;
50739;SDS011;36704;52.524;17.580;2023-05-10T16:04:58;4.95;;;2.45;;
50739;SDS011;36704;52.524;17.580;2023-05-10T16:07:44;4.40;;;2.60;;
50739;SDS011;36704;52.524;17.580;2023-05-10T16:10:31;2.67;;;2.10;;
50739;SDS011;36704;52.524;17.580;2023-05-10T16:13:17;5.32;;;2.42;;
50739;SDS011;36704;52.524;17.580;2023-05-10T16:16:03;7.35;;;3.00;;
50739;SDS011;36704;52.524;17.580;2023-05-10T16:18:50;7.68;;;3.00;;
50739;SDS011;36704;52.524;17.580;2023-05-10T16:21:37;8.98;;;4.07;;
50739;SDS011;36704;52.524;17.580;2023-05-10T16:24:24;6.85;;;3.10;;
50739;SDS011;36704;52.524;17.580;2023-05-10T16:27:13;4.15;;;3.08;;
50739;SDS011;36704;52.524;17.580;2023-05-10T16:30:02;4.72;;;2.90;;
50739;SDS011;36704;52.524;17.580;2023-05-10T16:32:49;17.23;;;10.07;;
50739;SDS011;36704;52.524;17.580;2023-05-10T16:35:38;5.97;;;2.95;;
50739;SDS011;36704;52.524;17.580;2023-05-10T16:38:25;3.50;;;2.40;;
50739;SDS011;36704;52.524;17.580;2023-05-10T16:41:12;4.50;;;3.50;;
50739;SDS011;36704;52.524;17.580;2023-05-10T16:44:00;4.35;;;3.20;;
50739;SDS011;36704;52.524;17.580;2023-05-10T16:46:47;6.55;;;4.97;;
50739;SDS011;36704;52.524;17.580;2023-05-10T16:49:34;6.63;;;3.50;;
50739;SDS011;36704;52.524;17.580;2023-05-10T16:52:21;8.43;;;3.30;;
50739;SDS011;36704;52.524;17.580;2023-05-10T16:55:08;4.22;;;2.92;;
50739;SDS011;36704;52.524;17.580;2023-05-10T16:57:54;16.25;;;8.68;;